Time;durP1;ratioP1;P1;durP2;ratioP2;P2;SDS_P1;SDS_P2;PMS_P1;PMS_P2;Temp;Humidity;BMP_temperature;BMP_pressure;BME280_temperature;BME280_humidity;BME280_pressure;Samples;Min_cycle;Max_cycle;Signal;HPM_P1;HPM_P2
2024/01/18 00:02:10;;;;;;;4.63;4.13;;;4.50;21.50;;;2.94;100.00;97790.19;4986218;28;20078;-77
2024/01/18 00:04:40;;;;;;;5.18;4.68;;;4.50;21.60;;;2.90;100.00;97810.22;4978942;28;20054;-78
2024/01/18 00:07:08;;;;;;;5.40;4.90;;;4.40;21.30;;;2.92;100.00;97817.97;4959603;28;20262;-78
2024/01/18 00:09:35;;;;;;;5.43;4.90;;;4.40;22.10;;;2.91;100.00;97829.25;4976856;28;20306;-79
2024/01/18 00:12:02;;;;;;;5.47;4.97;;;4.40;21.40;;;2.85;100.00;97812.13;4987676;28;20452;-77
2024/01/18 00:14:29;;;;;;;5.50;5.00;;;4.40;21.20;;;2.64;100.00;97772.97;4972269;28;20038;-78
2024/01/18 00:16:59;;;;;;;5.22;4.65;;;4.40;22.50;;;2.84;100.00;97816.47;4969496;28;20043;-79
2024/01/18 00:19:26;;;;;;;13.23;6.72;;;4.40;23.50;;;2.89;100.00;97836.22;4989047;28;20608;-78
2024/01/18 00:21:53;;;;;;;14.23;6.90;;;4.40;23.40;;;2.84;100.00;97829.44;4972781;28;20050;-79
2024/01/18 00:24:20;;;;;;;8.05;5.97;;;4.30;27.10;;;2.84;100.00;97837.22;4973780;28;20073;-78
2024/01/18 00:26:47;;;;;;;6.03;4.88;;;4.40;27.30;;;2.89;100.00;97849.22;4966882;28;20802;-79
2024/01/18 00:29:14;;;;;;;6.60;5.93;;;5.40;27.40;;;2.85;100.00;97845.88;4983339;28;20046;-78
2024/01/18 00:31:41;;;;;;;4.88;4.22;;;4.30;26.40;;;2.74;100.00;97833.25;4977273;28;20089;-79
2024/01/18 00:34:08;;;;;;;5.72;5.13;;;4.30;26.10;;;2.76;100.00;97847.03;4982864;28;20046;-78
2024/01/18 00:36:35;;;;;;;4.90;4.50;;;4.30;26.20;;;2.70;100.00;97834.25;4992128;28;20477;-79
2024/01/18 00:39:09;;;;;;;5.38;4.88;;;4.30;26.90;;;2.68;100.00;97829.13;4958045;28;20562;-78
2024/01/18 00:41:39;;;;;;;5.00;4.50;;;4.30;27.10;;;2.83;100.00;97860.69;4975914;28;20146;-78
2024/01/18 00:44:09;;;;;;;5.28;4.43;;;4.20;26.20;;;2.75;100.00;97842.75;4983848;28;20062;-78
2024/01/18 00:46:36;;;;;;;;;;;4.20;28.90;;;2.74;100.00;97855.78;4981070;28;20046;-79
2024/01/18 00:49:04;;;;;;;6.22;4.07;;;4.10;29.00;;;2.76;100.00;97854.84;4988255;28;19928;-79
2024/01/18 00:51:32;;;;;;;6.80;4.00;;;4.20;29.90;;;2.65;100.00;97843.94;4976010;28;20046;-78
2024/01/18 00:53:59;;;;;;;5.07;3.95;;;4.20;29.20;;;2.77;100.00;97855.66;4993558;28;20039;-78
2024/01/18 00:56:26;;;;;;;4.20;3.80;;;4.30;28.00;;;2.75;100.00;97857.47;4969668;28;20505;-79
2024/01/18 00:58:53;;;;;;;5.05;3.90;;;4.20;26.40;;;2.63;100.00;97850.94;4977195;28;20518;-78
2024/01/18 01:01:20;;;;;;;5.53;5.00;;;4.60;26.40;;;2.78;100.00;97883.34;4962444;28;20101;-78
2024/01/18 01:03:47;;;;;;;5.13;4.57;;;4.20;26.70;;;2.69;100.00;97871.50;4985280;28;20097;-78
2024/01/18 01:06:14;;;;;;;5.07;4.57;;;4.10;25.60;;;2.63;100.00;97880.31;4972648;28;20192;-79
2024/01/18 01:08:41;;;;;;;4.93;4.45;;;4.10;27.30;;;2.62;100.00;97883.00;4980752;28;20073;-77
2024/01/18 01:11:08;;;;;;;5.47;4.90;;;4.10;29.80;;;2.66;100.00;97889.78;4977720;28;20500;-78
2024/01/18 01:13:36;;;;;;;5.20;4.40;;;4.10;28.70;;;2.60;100.00;97887.38;4955929;28;20242;-79
2024/01/18 01:16:03;;;;;;;5.60;4.97;;;4.00;29.70;;;2.54;100.00;97893.63;4971888;28;20046;-79
2024/01/18 01:18:30;;;;;;;5.97;5.38;;;4.00;31.20;;;2.54;100.00;97907.44;4959289;28;20089;-80
2024/01/18 01:20:57;;;;;;;6.43;5.68;;;3.90;33.60;;;2.51;100.00;97901.50;4976572;28;20054;-79
2024/01/18 01:23:24;;;;;;;5.60;5.00;;;4.00;34.60;;;2.58;100.00;97908.19;4965765;28;20053;-79
2024/01/18 01:25:51;;;;;;;6.53;5.72;;;4.00;34.60;;;2.54;100.00;97910.03;5001114;28;20046;-78
2024/01/18 01:28:19;;;;;;;6.22;5.05;;;4.10;33.30;;;2.52;100.00;97905.78;4956460;28;20053;-78
2024/01/18 01:30:45;;;;;;;7.72;6.28;;;4.10;31.90;;;2.57;100.00;97910.81;4960711;28;20084;-79
2024/01/18 01:33:12;;;;;;;15.73;9.45;;;4.00;33.50;;;2.56;100.00;97912.59;4950027;28;20082;-77
2024/01/18 01:35:40;;;;;;;9.70;7.13;;;3.90;32.60;;;2.58;100.00;97912.56;4967852;28;20437;-76
2024/01/18 01:38:07;;;;;;;7.30;6.57;;;4.00;31.40;;;2.62;100.00;97927.13;4976868;28;20093;-78
2024/01/18 01:40:34;;;;;;;6.43;5.72;;;4.00;30.40;;;2.60;100.00;97915.94;4964864;28;20500;-78
2024/01/18 01:43:01;;;;;;;8.45;7.05;;;4.00;27.50;;;2.54;100.00;97925.59;4965238;28;20563;-78
2024/01/18 01:45:28;;;;;;;8.68;7.78;;;4.10;28.10;;;2.28;100.00;97879.69;4988402;28;20046;-77
2024/01/18 01:47:55;;;;;;;7.40;6.70;;;3.90;30.80;;;2.50;100.00;97915.38;4972747;28;20051;-78
2024/01/18 01:50:22;;;;;;;9.00;7.38;;;3.90;33.10;;;2.55;100.00;97910.88;4971416;28;20109;-78
2024/01/18 01:52:50;;;;;;;8.35;7.43;;;3.90;31.00;;;2.54;100.00;97904.81;4971257;28;20457;-79
2024/01/18 01:55:17;;;;;;;7.07;6.38;;;4.70;29.90;;;2.45;100.00;97899.94;4971223;28;20130;-78
2024/01/18 01:57:47;;;;;;;8.75;7.85;;;4.00;27.00;;;2.45;100.00;97904.28;4970440;28;20045;-79
2024/01/18 02:00:15;;;;;;;8.48;7.30;;;4.00;27.90;;;2.54;100.00;97933.38;4971215;28;20054;-78
2024/01/18 02:02:43;;;;;;;8.13;7.32;;;4.00;27.40;;;2.48;100.00;97941.38;4971218;28;20569;-79
2024/01/18 02:05:11;;;;;;;8.98;7.57;;;3.90;27.10;;;2.50;100.00;97942.16;4970843;28;20077;-78
2024/01/18 02:07:39;;;;;;;8.23;7.43;;;4.00;29.00;;;2.47;100.00;97946.59;4977826;28;20125;-78
2024/01/18 02:10:07;;;;;;;8.75;7.85;;;3.90;28.70;;;2.38;100.00;97926.97;4954894;28;20070;-78
2024/01/18 02:12:35;;;;;;;9.40;8.18;;;4.00;28.70;;;2.38;100.00;97919.16;4967181;28;20142;-78
2024/01/18 02:15:04;;;;;;;9.63;8.38;;;3.90;28.00;;;2.45;100.00;97915.50;4954772;28;20047;-78
2024/01/18 02:17:31;;;;;;;9.27;7.72;;;4.00;27.60;;;2.47;100.00;97925.81;4957053;28;20039;-78
2024/01/18 02:19:58;;;;;;;9.38;8.32;;;4.00;26.00;;;2.51;100.00;97924.88;4970976;28;20043;-79
2024/01/18 02:22:28;;;;;;;10.20;9.13;;;3.90;25.30;;;2.44;100.00;97902.56;4961882;28;20468;-79
2024/01/18 02:25:18;;;;;;;11.85;9.40;;;3.90;24.90;;;2.50;100.00;97915.38;4974019;28;20054;-79
2024/01/18 02:27:45;;;;;;;11.73;8.85;;;3.90;24.00;;;2.45;100.00;97906.84;4989148;28;20054;-79
2024/01/18 02:30:13;;;;;;;11.43;10.25;;;4.00;24.40;;;2.53;100.00;97928.25;4983162;28;20633;-79
2024/01/18 02:32:40;;;;;;;11.77;10.07;;;3.90;22.30;;;2.41;100.00;97921.66;4985631;28;20049;-79
2024/01/18 02:35:08;;;;;;;13.65;10.88;;;3.90;19.50;;;2.38;100.00;97922.63;4978635;28;20059;-78
2024/01/18 02:37:35;;;;;;;13.82;11.57;;;3.90;21.30;;;2.38;100.00;97919.16;4954437;28;20051;-78
2024/01/18 02:40:03;;;;;;;14.98;11.55;;;3.80;22.00;;;2.40;100.00;97943.34;4974980;28;20053;-78
2024/01/18 02:42:30;;;;;;;13.27;11.88;;;3.80;20.70;;;2.34;100.00;97926.22;4978564;28;20616;-78
2024/01/18 02:44:57;;;;;;;13.32;10.75;;;3.80;23.00;;;2.37;100.00;97922.66;4968269;28;20093;-78
2024/01/18 02:47:25;;;;;;;15.00;12.05;;;3.80;24.50;;;2.40;100.00;97927.75;4970757;28;20046;-78
2024/01/18 02:49:53;;;;;;;11.95;10.75;;;3.80;22.80;;;2.35;100.00;97921.88;4969811;28;20055;-78
2024/01/18 02:52:20;;;;;;;12.88;11.50;;;3.80;21.20;;;2.33;100.00;97927.09;4970654;28;20425;-78
2024/01/18 02:54:47;;;;;;;13.95;11.50;;;3.80;21.10;;;2.36;100.00;97950.38;4965016;28;20048;-78
2024/01/18 02:57:14;;;;;;;12.85;11.48;;;3.90;20.70;;;2.32;100.00;97955.69;4964056;28;20125;-78
2024/01/18 02:59:41;;;;;;;14.82;12.38;;;3.80;20.70;;;2.34;100.00;97934.00;4945638;28;20093;-79
2024/01/18 03:02:08;;;;;;;13.38;11.88;;;3.80;19.10;;;2.25;100.00;97913.50;4976751;28;20065;-79
2024/01/18 03:04:35;;;;;;;13.02;11.63;;;3.70;17.20;;;2.32;100.00;97929.75;4972231;28;20097;-78
2024/01/18 03:07:03;;;;;;;13.40;12.00;;;3.80;18.50;;;2.28;100.00;97934.16;4964871;28;20055;-78
2024/01/18 03:09:29;;;;;;;14.18;10.95;;;3.70;17.50;;;2.25;100.00;97940.28;4956505;28;20702;-78
2024/01/18 03:11:57;;;;;;;13.13;11.73;;;3.80;19.20;;;2.23;100.00;97936.06;4974651;28;20055;-78
2024/01/18 03:14:24;;;;;;;14.15;11.90;;;3.70;20.80;;;2.21;100.00;97935.25;4977070;28;20169;-78
2024/01/18 03:16:51;;;;;;;17.38;14.23;;;3.60;23.70;;;2.11;100.00;97922.53;4973969;28;20058;-78
2024/01/18 03:19:21;;;;;;;;;;;3.70;25.40;;;2.07;100.00;97915.75;4981233;28;20493;-78
2024/01/18 03:21:49;;;;;;;17.67;14.63;;;3.70;24.90;;;2.17;100.00;97921.53;4972993;28;20017;-78
2024/01/18 03:24:16;;;;;;;17.25;13.75;;;3.60;24.10;;;2.08;100.00;97907.06;4935638;28;20078;-78
2024/01/18 03:26:43;;;;;;;18.23;15.95;;;4.30;22.80;;;2.20;100.00;97934.41;4966983;28;20047;-78
2024/01/18 03:29:10;;;;;;;17.20;15.13;;;3.60;21.20;;;2.12;100.00;97918.22;4967562;28;20066;-78
2024/01/18 03:31:38;;;;;;;16.08;14.35;;;3.70;22.40;;;2.12;100.00;97897.47;4951577;28;20133;-79
2024/01/18 03:34:05;;;;;;;17.20;13.15;;;3.70;22.40;;;2.20;100.00;97918.81;4950936;28;20053;-78
2024/01/18 03:36:32;;;;;;;16.77;13.88;;;3.70;21.10;;;2.12;100.00;97911.28;4935156;28;20061;-78
2024/01/18 03:38:59;;;;;;;14.40;12.35;;;3.70;20.10;;;2.20;100.00;97943.94;4951102;28;20058;-78
2024/01/18 03:41:26;;;;;;;12.65;11.30;;;3.60;19.40;;;2.14;100.00;97934.59;4935534;28;20070;-79
2024/01/18 03:43:53;;;;;;;14.23;12.13;;;3.60;17.80;;;2.04;100.00;97925.34;4951187;28;20548;-78
2024/01/18 03:46:20;;;;;;;16.02;12.52;;;3.70;14.50;;;2.11;100.00;97939.88;4931008;28;20051;-78
2024/01/18 03:48:47;;;;;;;17.92;14.40;;;4.20;15.00;;;1.97;100.00;97928.13;4967126;28;20850;-78
2024/01/18 03:51:14;;;;;;;16.58;12.80;;;3.60;15.50;;;2.03;100.00;97929.72;4935152;28;20445;-78
2024/01/18 03:53:44;;;;;;;15.50;13.43;;;3.60;17.10;;;2.11;100.00;97945.88;4972231;28;20132;-78
2024/01/18 03:56:12;;;;;;;15.30;12.55;;;3.60;17.80;;;2.05;100.00;97947.81;4975457;28;20506;-78
2024/01/18 03:58:43;;;;;;;15.57;12.57;;;3.60;17.30;;;2.02;100.00;97937.53;4980320;28;20045;-78
2024/01/18 04:01:10;;;;;;;15.32;13.00;;;3.60;18.30;;;2.05;100.00;97951.25;4964425;28;20065;-79
2024/01/18 04:03:42;;;;;;;13.00;11.35;;;3.70;17.70;;;2.10;100.00;97951.09;4976618;28;20061;-79
2024/01/18 04:06:13;;;;;;;14.23;12.73;;;3.60;15.00;;;2.08;100.00;97942.53;4975776;28;20054;-78
2024/01/18 04:08:41;;;;;;;13.93;12.10;;;4.80;15.60;;;2.02;100.00;97927.97;4965696;28;20046;-79
2024/01/18 04:11:08;;;;;;;17.85;12.32;;;3.60;15.00;;;2.06;100.00;97928.75;4989320;28;20046;-79
2024/01/18 04:13:35;;;;;;;15.27;11.57;;;3.50;14.10;;;2.09;100.00;97929.53;4976181;28;20047;-78
2024/01/18 04:16:03;;;;;;;15.48;12.85;;;3.60;12.70;;;2.04;100.00;97922.75;4982901;28;20055;-78
2024/01/18 04:18:29;;;;;;;14.32;11.48;;;3.50;13.40;;;1.98;100.00;97914.28;4965970;28;20051;-77
2024/01/18 04:20:57;;;;;;;15.93;13.35;;;4.70;10.90;;;2.05;100.00;97932.25;4987742;28;20090;-78
2024/01/18 04:23:24;;;;;;;15.57;11.68;;;3.50;9.80;;;2.05;100.00;97953.00;4963940;28;20058;-78
2024/01/18 04:25:51;;;;;;;14.05;12.35;;;3.50;10.80;;;2.05;100.00;97973.75;4973997;28;20052;-78
2024/01/18 04:28:22;;;;;;;14.73;12.43;;;3.50;11.90;;;2.02;100.00;97966.88;4954246;28;20047;-78
2024/01/18 04:30:49;;;;;;;14.40;11.80;;;3.50;12.40;;;2.00;100.00;97975.63;4959343;28;20424;-79
2024/01/18 04:33:18;;;;;;;16.27;13.15;;;3.40;10.70;;;1.94;100.00;97974.03;4969390;28;20457;-79
2024/01/18 04:35:46;;;;;;;14.38;12.88;;;3.50;10.40;;;1.91;100.00;97966.34;4979468;28;20042;-78
2024/01/18 04:38:13;;;;;;;13.40;11.85;;;3.40;14.80;;;1.94;100.00;97982.66;4979660;28;20437;-79
2024/01/18 04:40:40;;;;;;;14.85;12.60;;;3.50;11.80;;;1.84;100.00;97974.28;4952498;28;20039;-79
2024/01/18 04:43:10;;;;;;;13.00;10.98;;;3.40;10.10;;;1.86;100.00;97976.84;4976232;28;20082;-78
2024/01/18 04:45:37;;;;;;;13.77;12.10;;;3.40;14.20;;;1.92;100.00;97979.25;4979220;28;20046;-79
2024/01/18 04:48:05;;;;;;;14.05;11.15;;;3.40;15.40;;;1.82;100.00;97976.06;4931681;29;20051;-79
2024/01/18 04:50:32;;;;;;;14.18;10.90;;;3.40;13.10;;;1.86;100.00;98009.69;4946806;28;20142;-79
2024/01/18 04:53:00;;;;;;;14.00;11.18;;;3.40;12.70;;;1.84;100.00;98013.19;4931653;29;20059;-80
2024/01/18 04:55:28;;;;;;;16.08;12.15;;;3.40;12.70;;;1.75;100.00;98007.41;4937862;28;20054;-79
2024/01/18 04:57:55;;;;;;;16.45;12.18;;;3.30;17.10;;;1.77;100.00;98016.84;4940380;28;20127;-79
2024/01/18 05:00:23;;;;;;;16.90;12.50;;;5.00;18.30;;;1.76;100.00;98006.50;4929775;28;20110;-78
2024/01/18 05:02:53;;;;;;;16.52;12.95;;;3.20;17.80;;;1.75;100.00;98012.56;4934706;28;20095;-81
2024/01/18 05:05:20;;;;;;;14.00;11.35;;;3.30;16.20;;;1.82;100.00;98046.09;4950012;28;20129;-79
2024/01/18 05:07:49;;;;;;;15.95;12.25;;;3.50;17.70;;;1.69;100.00;98026.53;4958727;28;20051;-79
2024/01/18 05:10:17;;;;;;;16.90;12.75;;;3.30;15.10;;;1.73;100.00;98041.16;4934830;28;20593;-79
2024/01/18 05:12:45;;;;;;;14.65;12.25;;;3.30;13.50;;;1.75;100.00;98043.69;4931150;29;20597;-79
2024/01/18 05:15:12;;;;;;;14.15;11.50;;;3.30;15.70;;;1.75;100.00;98048.88;4930730;28;20043;-79
2024/01/18 05:17:41;;;;;;;14.70;11.88;;;3.30;15.50;;;1.63;100.00;98031.91;4928355;28;20153;-81
2024/01/18 05:20:08;;;;;;;14.27;11.40;;;3.20;14.80;;;1.72;100.00;98013.53;4954465;28;20093;-81
2024/01/18 05:22:38;;;;;;;11.57;10.38;;;3.30;12.90;;;1.79;100.00;98017.66;4963378;28;20045;-79
2024/01/18 05:25:06;;;;;;;13.70;11.05;;;3.30;11.80;;;1.60;100.00;97999.13;4956038;28;20046;-79
2024/01/18 05:27:33;;;;;;;14.75;11.55;;;3.30;13.10;;;1.76;100.00;98014.28;4951423;28;20074;-78
2024/01/18 05:30:00;;;;;;;14.60;11.75;;;3.40;14.30;;;1.78;100.00;98004.72;4951870;28;20070;-80
2024/01/18 05:32:28;;;;;;;13.43;10.50;;;3.20;12.20;;;1.70;100.00;97995.41;4951750;28;20039;-78
2024/01/18 05:34:55;;;;;;;13.15;11.48;;;3.30;13.20;;;1.65;100.00;97983.44;4973343;28;20061;-79
2024/01/18 05:37:22;;;;;;;14.15;11.90;;;4.70;8.60;;;1.61;100.00;97967.13;4963638;28;20082;-79
2024/01/18 05:39:55;;;;;;;11.38;10.18;;;3.20;13.20;;;1.59;100.00;97968.91;4958883;28;20138;-79
2024/01/18 05:44:13;;;;;;;10.88;9.43;;;3.10;14.10;;;1.53;100.00;97972.50;5063518;28;20353;-72
2024/01/18 05:46:41;;;;;;;12.05;10.23;;;3.10;23.80;;;1.52;100.00;97981.16;5052696;28;20064;-72
2024/01/18 05:49:08;;;;;;;12.80;10.35;;;3.20;26.10;;;1.59;100.00;97986.22;5029880;28;20507;-71
2024/01/18 05:51:36;;;;;;;12.88;10.32;;;3.50;27.10;;;1.70;100.00;97984.16;5059220;28;20190;-70
2024/01/18 05:54:10;;;;;;;12.38;10.70;;;3.10;23.40;;;1.71;100.00;97983.28;5060346;28;20048;-70
2024/01/18 05:56:37;;;;;;;10.77;9.43;;;3.20;20.00;;;1.71;100.00;97998.84;5013486;28;20071;-71
2024/01/18 05:59:07;;;;;;;13.52;10.48;;;3.20;19.00;;;1.73;100.00;97991.91;5049088;28;20405;-71
2024/01/18 06:01:35;;;;;;;13.02;10.48;;;3.20;16.10;;;1.70;100.00;97982.44;5012790;28;20068;-71
2024/01/18 06:04:02;;;;;;;15.35;10.80;;;3.20;15.90;;;1.70;100.00;97989.34;5028837;28;20068;-71
2024/01/18 06:06:29;;;;;;;12.95;10.60;;;3.60;13.30;;;1.58;100.00;97974.97;5043690;28;20056;-71
2024/01/18 06:08:57;;;;;;;11.93;10.43;;;3.30;11.00;;;1.70;100.00;97987.63;5030108;28;20119;-71
2024/01/18 06:11:26;;;;;;;13.35;10.73;;;3.20;12.10;;;1.62;100.00;97974.00;5016289;28;20052;-71
2024/01/18 06:13:56;;;;;;;13.32;11.30;;;3.60;12.30;;;1.72;100.00;97982.41;5032884;28;20504;-71
2024/01/18 06:16:24;;;;;;;;;;;3.10;12.80;;;1.63;100.00;97986.06;5041456;28;20080;-71
2024/01/18 06:18:59;;;;;;;10.40;8.40;;;3.20;13.60;;;1.68;100.00;98002.38;5020411;28;19928;-71
2024/01/18 06:21:27;;;;;;;13.63;11.48;;;3.10;15.20;;;1.64;100.00;98005.09;5044016;28;20053;-71
2024/01/18 06:23:54;;;;;;;15.15;12.65;;;3.10;14.10;;;1.70;100.00;98013.56;5039965;28;20040;-71
2024/01/18 06:26:24;;;;;;;;;;;3.10;15.30;;;1.63;100.00;97999.03;5054606;28;20081;-71
2024/01/18 06:28:52;;;;;;;12.98;10.93;;;3.00;15.80;;;1.58;100.00;98013.88;5024818;28;19959;-71
2024/01/18 06:31:26;;;;;;;;;;;3.20;20.30;;;1.61;100.00;98007.75;5026795;28;20052;-71
2024/01/18 06:33:53;;;;;;;13.98;10.73;;;3.00;18.40;;;1.62;100.00;98007.69;5024873;28;19925;-70
2024/01/18 06:36:22;;;;;;;16.67;12.52;;;3.10;19.90;;;1.60;100.00;97987.91;5025386;28;20151;-71
2024/01/18 06:38:49;;;;;;;14.57;12.55;;;3.10;20.30;;;1.68;100.00;97998.91;5045397;28;20558;-71
2024/01/18 06:41:19;;;;;;;15.45;11.75;;;3.10;18.20;;;1.52;100.00;97981.16;5042262;28;20136;-70
2024/01/18 06:43:49;;;;;;;15.95;12.40;;;3.00;19.10;;;1.59;100.00;97989.63;5054965;28;20045;-71
2024/01/18 06:46:17;;;;;;;13.40;11.68;;;3.10;21.40;;;1.58;100.00;98002.66;5003937;28;20049;-70
2024/01/18 06:48:53;;;;;;;15.10;11.73;;;4.80;22.00;;;1.62;100.00;98014.66;5029471;28;20040;-71
2024/01/18 06:51:21;;;;;;;14.65;12.00;;;3.10;23.60;;;1.63;100.00;98022.38;5045102;28;20073;-71
2024/01/18 06:53:50;;;;;;;16.63;13.55;;;3.00;20.20;;;1.60;100.00;98019.84;5041087;28;20631;-71
2024/01/18 06:56:18;;;;;;;15.07;13.15;;;3.00;22.80;;;1.54;100.00;98018.25;5022931;28;20043;-71
2024/01/18 06:58:45;;;;;;;15.15;12.48;;;3.10;22.20;;;1.56;100.00;98031.19;5008617;28;20459;-71
2024/01/18 07:01:13;;;;;;;15.13;13.13;;;3.10;24.80;;;1.57;100.00;98045.84;5011855;28;20049;-71
2024/01/18 07:03:42;;;;;;;16.08;13.60;;;3.10;24.30;;;1.58;100.00;98042.38;5023849;28;20408;-71
2024/01/18 07:06:11;;;;;;;18.25;12.60;;;3.10;25.00;;;1.57;100.00;98053.63;5007573;28;20041;-70
2024/01/18 07:08:39;;;;;;;15.32;12.98;;;3.00;22.80;;;1.60;100.00;98053.56;5050227;28;20037;-72
2024/01/18 07:11:06;;;;;;;14.32;11.57;;;3.10;24.40;;;1.62;100.00;98048.34;5024106;28;20056;-72
2024/01/18 07:13:33;;;;;;;14.07;10.82;;;3.00;21.40;;;1.57;100.00;98051.03;5040400;28;20064;-72
2024/01/18 07:16:00;;;;;;;14.05;11.27;;;3.10;18.60;;;1.50;100.00;98033.97;5015394;28;20091;-72
2024/01/18 07:18:28;;;;;;;14.05;11.15;;;3.20;21.70;;;1.54;100.00;98053.72;5015603;28;20411;-72
2024/01/18 07:20:56;;;;;;;12.60;10.77;;;3.00;21.70;;;1.40;100.00;98052.31;5018212;28;20390;-71
2024/01/18 07:23:23;;;;;;;14.57;11.38;;;3.00;25.20;;;1.48;100.00;98072.84;5032701;28;20041;-69
2024/01/18 07:25:51;;;;;;;15.23;12.43;;;2.80;24.40;;;1.44;100.00;98068.63;5015509;28;20052;-70
2024/01/18 07:28:19;;;;;;;15.48;11.63;;;2.90;25.20;;;1.42;100.00;98081.63;5040379;28;20120;-70
2024/01/18 07:30:47;;;;;;;13.48;11.45;;;2.90;24.60;;;1.43;100.00;98072.13;5011937;28;20254;-70
2024/01/18 07:33:14;;;;;;;13.15;10.73;;;2.90;24.40;;;1.39;100.00;98060.09;5029477;28;20252;-71
2024/01/18 07:35:42;;;;;;;12.45;10.90;;;2.90;20.80;;;1.32;100.00;98053.38;5014855;28;20045;-70
2024/01/18 07:38:10;;;;;;;15.65;11.85;;;2.70;23.90;;;1.31;100.00;98057.69;5041297;28;20045;-70
2024/01/18 07:40:37;;;;;;;12.88;11.13;;;2.80;25.40;;;1.30;100.00;98053.41;5027647;28;20087;-69
2024/01/18 07:43:04;;;;;;;13.02;11.15;;;2.80;26.80;;;1.34;100.00;98052.47;5027665;28;20103;-70
2024/01/18 07:45:32;;;;;;;13.05;11.35;;;2.80;25.20;;;1.29;100.00;98056.06;5013263;28;20079;-70
2024/01/18 07:48:00;;;;;;;15.57;11.93;;;2.70;25.10;;;1.23;100.00;98044.09;5023058;28;20056;-70
2024/01/18 07:50:27;;;;;;;12.68;10.93;;;3.30;24.40;;;1.22;100.00;98056.16;5038702;28;20051;-70
2024/01/18 07:53:04;;;;;;;14.68;11.80;;;3.80;23.80;;;1.19;100.00;98045.06;5013024;28;20469;-71
2024/01/18 07:55:31;;;;;;;13.55;10.93;;;2.60;25.10;;;1.05;100.00;98032.41;5013656;28;20143;-71
2024/01/18 07:57:58;;;;;;;13.20;11.18;;;2.60;24.20;;;1.16;100.00;98043.38;5024643;28;20122;-70
2024/01/18 08:00:25;;;;;;;12.82;10.77;;;2.60;25.50;;;1.22;100.00;98057.94;5012868;28;20103;-71
2024/01/18 08:02:53;;;;;;;14.63;11.95;;;2.60;21.20;;;1.17;100.00;98046.81;5025419;28;20052;-71
2024/01/18 08:05:21;;;;;;;13.88;11.88;;;2.60;23.30;;;1.14;100.00;98058.09;5018570;28;20048;-70
2024/01/18 08:07:48;;;;;;;14.50;11.25;;;2.80;22.20;;;1.25;100.00;98079.44;5025837;28;20041;-70
2024/01/18 08:10:16;;;;;;;14.98;11.25;;;3.20;20.40;;;1.18;100.00;98070.09;5010914;28;20045;-70
2024/01/18 08:12:44;;;;;;;16.38;12.13;;;2.70;18.10;;;1.17;100.00;98083.06;5014833;28;20076;-71
2024/01/18 08:15:12;;;;;;;15.80;12.18;;;2.70;17.30;;;1.17;100.00;98099.47;4994983;28;20052;-70
2024/01/18 08:17:40;;;;;;;13.15;10.52;;;2.70;19.60;;;1.20;100.00;98102.00;5021218;28;20056;-71
2024/01/18 08:20:12;;;;;;;16.85;11.68;;;2.60;20.80;;;1.18;100.00;98101.19;5039951;28;20049;-70
2024/01/18 08:22:42;;;;;;;16.58;11.68;;;2.60;17.30;;;1.18;100.00;98111.53;5026947;28;20087;-70
2024/01/18 08:25:10;;;;;;;13.75;11.23;;;2.60;18.50;;;1.19;100.00;98121.00;5018150;28;20114;-73
2024/01/18 08:27:43;;;;;;;12.65;10.15;;;3.70;18.40;;;1.04;100.00;98124.81;5026648;28;20480;-70
2024/01/18 08:30:13;;;;;;;11.68;10.38;;;2.60;16.90;;;1.13;100.00;98140.13;5027236;28;20056;-69
2024/01/18 08:32:40;;;;;;;19.60;11.18;;;2.60;18.30;;;1.04;100.00;98134.28;5048522;28;20051;-70
2024/01/18 08:35:08;;;;;;;13.55;11.60;;;3.50;16.70;;;1.07;100.00;98136.81;5027155;28;20497;-70
2024/01/18 08:37:35;;;;;;;13.90;11.00;;;2.50;19.20;;;1.07;100.00;98149.75;5001465;28;20103;-69
2024/01/18 08:40:04;;;;;;;15.93;10.73;;;2.60;20.10;;;1.03;100.00;98143.81;5033092;28;20061;-70
2024/01/18 08:42:32;;;;;;;14.25;11.05;;;2.40;20.70;;;1.03;100.00;98161.09;5015661;28;20045;-69
2024/01/18 08:44:59;;;;;;;13.43;11.00;;;2.50;20.50;;;1.03;100.00;98167.13;5026176;28;20041;-69
2024/01/18 08:47:27;;;;;;;13.38;10.95;;;3.40;22.00;;;0.97;100.00;98164.66;5024514;28;20384;-70
2024/01/18 08:49:54;;;;;;;12.57;9.45;;;2.50;18.80;;;0.93;100.00;98191.50;5028090;28;20048;-68
2024/01/18 08:52:22;;;;;;;13.30;10.40;;;2.70;19.30;;;0.93;100.00;98199.25;5024520;28;20072;-69
2024/01/18 08:54:51;;;;;;;11.80;9.63;;;2.40;20.10;;;0.89;100.00;98198.47;5054219;28;20053;-72
2024/01/18 08:57:19;;;;;;;14.13;10.18;;;2.40;18.90;;;0.85;100.00;98197.66;5038587;28;20483;-68
2024/01/18 08:59:46;;;;;;;12.27;9.65;;;2.30;19.50;;;0.83;100.00;98196.84;5030244;28;20044;-68
2024/01/18 09:02:14;;;;;;;12.05;9.32;;;3.00;22.30;;;0.79;100.00;98200.38;5034890;28;20060;-69
2024/01/18 09:04:52;;;;;;;11.60;9.52;;;2.30;20.00;;;0.65;100.00;98189.44;5018271;28;20472;-69
2024/01/18 09:07:23;;;;;;;14.50;9.52;;;2.20;23.60;;;0.70;100.00;98208.31;5026500;28;20041;-69
2024/01/18 09:09:55;;;;;;;11.80;9.23;;;2.30;24.30;;;0.72;100.00;98203.97;5049266;28;20037;-69
2024/01/18 09:12:26;;;;;;;10.32;8.48;;;2.30;21.00;;;0.61;100.00;98209.34;5046180;28;20044;-68
2024/01/18 09:14:54;;;;;;;12.32;10.18;;;2.10;21.70;;;0.67;100.00;98210.97;5046144;28;20064;-68
2024/01/18 09:17:21;;;;;;;12.73;9.90;;;2.10;25.80;;;0.68;100.00;98221.28;5046974;28;20055;-68
2024/01/18 09:19:48;;;;;;;12.52;9.63;;;2.10;27.40;;;0.60;100.00;98227.50;5012993;28;20132;-68
2024/01/18 09:22:16;;;;;;;11.15;9.43;;;2.10;24.60;;;0.55;100.00;98233.63;5012430;28;20512;-68
2024/01/18 09:24:44;;;;;;;11.90;9.90;;;1.90;26.40;;;0.59;100.00;98252.50;5029679;28;20045;-68
2024/01/18 09:27:12;;;;;;;10.82;8.48;;;2.10;28.60;;;0.53;100.00;98261.22;5029360;28;20217;-68
2024/01/18 09:29:39;;;;;;;13.25;9.57;;;2.00;22.10;;;0.55;100.00;98267.25;5029696;28;20055;-69
2024/01/18 09:32:07;;;;;;;10.88;8.10;;;2.10;18.50;;;0.47;100.00;98282.03;5010163;28;20045;-68
2024/01/18 09:34:34;;;;;;;11.02;9.32;;;2.00;15.60;;;0.46;100.00;98288.09;5028784;28;20086;-69
2024/01/18 09:37:04;;;;;;;11.63;9.00;;;1.90;19.30;;;0.40;100.00;98301.16;5028967;28;20121;-68
2024/01/18 09:39:31;;;;;;;13.23;10.23;;;2.10;20.40;;;0.48;100.00;98311.38;5012928;28;20084;-67
2024/01/18 09:42:07;;;;;;;13.07;10.20;;;1.90;15.30;;;0.44;100.00;98318.31;5046801;28;20132;-70
2024/01/18 09:44:37;;;;;;;11.95;9.13;;;2.20;11.60;;;0.34;100.00;98329.69;5013617;28;20068;-69
2024/01/18 09:47:05;;;;;;;12.90;10.05;;;1.90;21.00;;;0.36;100.00;98336.56;5012429;28;20049;-69
2024/01/18 09:49:41;;;;;;;11.88;9.45;;;1.90;21.50;;;0.36;100.00;98328.78;5006212;28;20158;-69
2024/01/18 09:52:09;;;;;;;11.63;9.70;;;1.80;17.30;;;0.30;100.00;98335.78;5004537;28;20144;-69
2024/01/18 09:54:37;;;;;;;13.70;10.40;;;1.70;22.90;;;0.35;100.00;98344.34;5019197;28;20115;-69
2024/01/18 09:57:11;;;;;;;13.75;10.30;;;2.60;22.50;;;0.32;100.00;98342.66;5046525;28;20559;-69
2024/01/18 09:59:44;;;;;;;14.18;9.10;;;1.90;20.30;;;0.27;100.00;98355.66;5046841;28;20045;-69
2024/01/18 10:02:12;;;;;;;11.45;8.77;;;1.70;19.70;;;0.36;100.00;98367.59;5025288;28;20059;-70
2024/01/18 10:04:41;;;;;;;13.07;9.70;;;1.80;18.80;;;0.34;100.00;98374.53;5028990;28;20037;-70
2024/01/18 10:07:09;;;;;;;13.75;9.75;;;2.30;17.30;;;0.30;100.00;98367.66;5028818;28;20053;-70
2024/01/18 10:09:36;;;;;;;10.57;8.93;;;1.80;19.00;;;0.13;100.00;98381.69;5046347;28;20499;-70
2024/01/18 10:12:05;;;;;;;13.35;8.90;;;1.60;21.70;;;0.17;100.00;98390.28;5028551;28;20053;-69
2024/01/18 10:14:43;;;;;;;12.48;9.70;;;1.90;39.30;;;0.22;100.00;98382.47;5046572;28;20044;-69
2024/01/18 10:17:21;;;;;;;14.00;10.25;;;1.80;34.40;;;0.30;100.00;98377.19;5012383;28;20075;-68
2024/01/18 10:19:51;;;;;;;16.60;10.65;;;1.80;28.80;;;0.35;100.00;98384.00;5028978;28;20048;-69
2024/01/18 10:22:22;;;;;;;15.15;10.80;;;1.90;30.50;;;0.40;100.00;98392.53;5029318;28;20155;-69
2024/01/18 10:24:50;;;;;;;12.27;9.45;;;1.50;24.70;;;0.41;100.00;98403.78;5028901;28;20029;-69